Time;durP1;ratioP1;P1;durP2;ratioP2;P2;SDS_P1;SDS_P2;PMS_P1;PMS_P2;Temp;Humidity;BMP_temperature;BMP_pressure;BME280_temperature;BME280_humidity;BME280_pressure;Samples;Min_cycle;Max_cycle;Signal;HPM_P1;HPM_P2
2023/09/17 00:01:03;;;;;;;0.20;0.20;;;;;;;18.73;83.59;95083.00;5057477;28;20207;-75
2023/09/17 00:03:32;;;;;;;0.20;0.20;;;;;;;18.74;83.06;95081.06;5049549;28;20207;-73
2023/09/17 00:05:59;;;;;;;0.38;0.38;;;;;;;18.69;83.00;95089.63;5052994;28;20200;-73
2023/09/17 00:08:25;;;;;;;0.20;0.20;;;;;;;18.71;82.38;95079.06;5052880;28;20212;-74
2023/09/17 00:10:52;;;;;;;0.20;0.20;;;;;;;18.68;81.88;95071.56;5052788;28;20565;-74
2023/09/17 00:13:19;;;;;;;0.20;0.20;;;;;;;18.67;81.00;95080.97;5052845;28;20243;-74
2023/09/17 00:15:47;;;;;;;0.20;0.20;;;;;;;18.69;80.81;95070.41;5053287;28;20699;-74
2023/09/17 00:18:15;;;;;;;0.20;0.20;;;;;;;18.63;80.11;95064.44;5052463;28;20279;-72
2023/09/17 00:20:42;;;;;;;0.55;0.30;;;;;;;18.64;80.06;95065.22;5053159;28;20199;-73
2023/09/17 00:23:10;;;;;;;0.20;0.20;;;;;;;18.56;80.57;95052.53;5052709;28;20618;-74
2023/09/17 00:25:37;;;;;;;0.82;0.82;;;;;;;18.56;80.21;95052.53;5052619;28;20279;-74
2023/09/17 00:28:04;;;;;;;0.32;0.32;;;;;;;18.57;80.41;95065.09;5052592;28;20227;-75
2023/09/17 00:30:31;;;;;;;0.70;0.50;;;;;;;18.51;80.81;95056.38;5052502;28;20215;-73
2023/09/17 00:32:59;;;;;;;0.43;0.43;;;;;;;18.53;81.43;95048.56;5052796;28;20286;-74
2023/09/17 00:35:26;;;;;;;0.30;0.30;;;;;;;18.43;81.94;95047.25;5052563;28;20224;-75
2023/09/17 00:37:53;;;;;;;0.30;0.30;;;;;;;18.43;82.38;95039.00;5052213;28;20195;-74
2023/09/17 00:40:23;;;;;;;0.20;0.20;;;;;;;18.40;82.87;95045.22;5052579;28;20207;-74
2023/09/17 00:42:50;;;;;;;1.75;0.95;;;;;;;18.40;83.18;95047.97;5052748;28;20291;-74
2023/09/17 00:45:16;;;;;;;0.82;0.82;;;;;;;18.39;83.60;95054.59;5052307;28;20306;-73
2023/09/17 00:47:43;;;;;;;0.25;0.25;;;;;;;18.37;84.14;95051.44;5052168;28;20208;-73
2023/09/17 00:50:12;;;;;;;0.20;0.20;;;;;;;18.35;84.67;95058.44;5052168;28;20207;-75
2023/09/17 00:52:39;;;;;;;0.20;0.20;;;;;;;18.37;84.74;95062.41;5052344;28;20206;-74
2023/09/17 00:55:07;;;;;;;0.45;0.43;;;;;;;18.36;85.24;95052.59;5051899;28;20239;-74
2023/09/17 00:57:34;;;;;;;0.20;0.20;;;;;;;18.36;85.41;95049.06;5058490;28;20207;-75
2023/09/17 01:00:08;;;;;;;0.17;0.17;;;;;;;18.36;85.51;95055.34;5052068;28;20208;-75
2023/09/17 01:02:36;;;;;;;0.80;0.50;;;;;;;18.38;85.50;95050.28;5056659;28;20241;-74
2023/09/17 01:05:04;;;;;;;0.10;0.10;;;;;;;18.36;85.85;95049.84;5051795;28;20231;-73
2023/09/17 01:07:33;;;;;;;0.20;0.20;;;;;;;18.35;85.71;95037.28;5041576;28;20579;-75
2023/09/17 01:10:00;;;;;;;0.40;0.40;;;;;;;18.31;86.17;95047.41;5052005;28;20211;-74
2023/09/17 01:12:28;;;;;;;0.43;0.43;;;;;;;18.35;86.33;95048.25;5051800;28;20242;-73
2023/09/17 01:14:55;;;;;;;0.50;0.50;;;;;;;18.32;86.72;95048.19;5052154;28;21022;-74
2023/09/17 01:17:27;;;;;;;0.20;0.20;;;;;;;18.29;86.75;95044.25;5051499;28;20286;-73
2023/09/17 01:19:54;;;;;;;0.40;0.40;;;;;;;18.29;86.96;95049.75;5052148;28;20279;-74
2023/09/17 01:22:26;;;;;;;0.20;0.20;;;;;;;18.29;87.13;95047.00;5051861;28;20203;-74
2023/09/17 01:25:06;;;;;;;0.35;0.35;;;;;;;18.26;87.23;95047.72;5051849;28;20291;-74
2023/09/17 01:27:38;;;;;;;0.20;0.20;;;;;;;18.27;87.59;95048.53;5045177;28;20204;-74
2023/09/17 01:30:10;;;;;;;0.50;0.50;;;;;;;18.24;88.02;95041.81;5051717;28;20595;-74
2023/09/17 01:32:38;;;;;;;0.30;0.30;;;;;;;18.19;88.22;95039.34;5051895;28;20206;-75
2023/09/17 01:35:05;;;;;;;0.40;0.40;;;;;;;18.20;88.24;95040.94;5051550;28;20204;-74
2023/09/17 01:37:36;;;;;;;0.10;0.10;;;;;;;18.20;88.43;95040.94;5046846;28;20250;-75
2023/09/17 01:40:07;;;;;;;0.65;0.65;;;;;;;18.15;88.33;95038.53;5051333;28;20286;-73
2023/09/17 01:42:36;;;;;;;0.20;0.20;;;;;;;18.13;88.77;95040.84;5051504;28;20256;-73
2023/09/17 01:45:05;;;;;;;0.10;0.10;;;;;;;18.13;88.52;95040.84;5050983;28;20216;-74
2023/09/17 01:47:34;;;;;;;0.60;0.60;;;;;;;18.13;88.49;95038.09;5049304;28;20282;-73
2023/09/17 01:50:01;;;;;;;0.65;0.63;;;;;;;18.11;88.60;95043.16;5051275;28;20549;-74
2023/09/17 01:52:32;;;;;;;0.38;0.38;;;;;;;18.10;88.63;95044.31;5051249;28;20334;-74
2023/09/17 01:54:59;;;;;;;2.45;1.33;;;;;;;18.07;88.92;95048.56;5050519;28;20232;-74
2023/09/17 01:57:25;;;;;;;0.20;0.20;;;;;;;18.08;89.07;95049.34;5056184;28;20292;-74
2023/09/17 01:59:54;;;;;;;0.20;0.20;;;;;;;18.04;89.48;95048.53;5050545;28;20618;-74
2023/09/17 02:02:21;;;;;;;0.32;0.32;;;;;;;18.02;89.65;95048.09;5054979;28;20204;-74
2023/09/17 02:04:48;;;;;;;0.30;0.30;;;;;;;17.99;90.09;95046.88;5049739;28;20618;-74
2023/09/17 02:07:16;;;;;;;0.32;0.32;;;;;;;17.99;90.20;95051.56;5050432;28;20311;-74
2023/09/17 02:09:43;;;;;;;0.20;0.20;;;;;;;17.97;90.04;95048.38;5050671;28;20231;-74
2023/09/17 02:12:10;;;;;;;1.20;1.02;;;;;;;17.97;90.13;95045.63;5050213;28;20254;-76
2023/09/17 02:14:38;;;;;;;0.60;0.60;;;;;;;17.98;89.73;95061.72;5050544;28;20730;-74
2023/09/17 02:17:08;;;;;;;0.20;0.20;;;;;;;17.95;89.79;95050.69;5050395;28;20312;-76
2023/09/17 02:19:35;;;;;;;0.47;0.45;;;;;;;17.92;89.75;95049.47;5035037;28;20294;-75
2023/09/17 02:22:02;;;;;;;0.30;0.30;;;;;;;17.86;89.93;95050.13;5050859;28;20561;-74
2023/09/17 02:24:28;;;;;;;0.30;0.30;;;;;;;17.86;89.98;95047.41;5050436;28;20204;-73
2023/09/17 02:26:55;;;;;;;0.30;0.30;;;;;;;17.85;90.37;95041.13;5050654;28;20657;-74
2023/09/17 02:29:22;;;;;;;0.73;0.68;;;;;;;17.83;90.39;95048.13;5049991;28;20269;-75
2023/09/17 02:31:48;;;;;;;0.60;0.60;;;;;;;17.77;90.58;95050.34;5050833;28;20200;-71
2023/09/17 02:34:17;;;;;;;1.08;0.75;;;;;;;17.77;91.21;95060.53;5050622;28;21408;-75
2023/09/17 02:36:43;;;;;;;0.35;0.35;;;;;;;17.66;91.98;95054.84;5050325;28;20231;-76
2023/09/17 02:39:11;;;;;;;0.30;0.30;;;;;;;17.58;91.97;95059.38;5050220;28;20212;-73
2023/09/17 02:41:39;;;;;;;0.30;0.30;;;;;;;17.54;92.60;95053.00;5050393;28;20281;-75
2023/09/17 02:44:06;;;;;;;0.68;0.68;;;;;;;17.48;93.94;95049.00;5050301;28;20208;-75
2023/09/17 02:46:33;;;;;;;0.50;0.50;;;;;;;17.49;93.61;95045.09;5050513;28;20229;-75
2023/09/17 02:49:00;;;;;;;0.10;0.10;;;;;;;17.52;93.88;95044.38;5049738;28;20211;-75
2023/09/17 02:51:28;;;;;;;0.65;0.45;;;;;;;17.50;93.77;95051.34;5050067;28;20204;-76
2023/09/17 02:53:55;;;;;;;0.25;0.25;;;;;;;17.50;93.03;95049.41;5050568;28;20290;-76
2023/09/17 02:56:22;;;;;;;0.10;0.10;;;;;;;17.51;93.37;95034.56;5053608;28;20219;-74
2023/09/17 02:58:49;;;;;;;0.20;0.20;;;;;;;17.46;93.48;95029.38;5051774;28;20207;-73
2023/09/17 03:01:18;;;;;;;0.20;0.20;;;;;;;17.46;93.69;95037.59;5054371;28;20588;-76
2023/09/17 03:03:45;;;;;;;0.20;0.20;;;;;;;17.49;93.91;95036.88;5050442;28;20298;-73
2023/09/17 03:06:12;;;;;;;0.25;0.25;;;;;;;17.45;93.89;95033.28;5049758;28;20710;-73
2023/09/17 03:08:42;;;;;;;0.38;0.38;;;;;;;17.48;94.26;95032.56;5050223;28;20222;-73
2023/09/17 03:11:13;;;;;;;0.20;0.20;;;;;;;17.46;93.88;95032.13;5049502;28;20204;-73
2023/09/17 03:13:42;;;;;;;0.10;0.10;;;;;;;17.45;93.98;95027.00;5049935;28;20228;-73
2023/09/17 03:16:09;;;;;;;0.32;0.32;;;;;;;17.43;94.08;95030.09;5049455;28;20235;-75
2023/09/17 03:18:35;;;;;;;0.20;0.20;;;;;;;17.42;94.46;95025.78;5050364;28;20211;-74
2023/09/17 03:21:05;;;;;;;0.35;0.30;;;;;;;17.38;94.61;95028.44;5049678;28;20207;-74
2023/09/17 03:23:32;;;;;;;0.10;0.10;;;;;;;17.40;94.78;95028.88;5038380;28;20311;-74
2023/09/17 03:26:01;;;;;;;0.20;0.20;;;;;;;17.41;95.04;95032.41;5051766;28;20704;-74
2023/09/17 03:28:28;;;;;;;0.20;0.20;;;;;;;17.40;95.01;95041.78;5054280;28;20290;-75
2023/09/17 03:30:55;;;;;;;0.13;0.13;;;;;;;17.37;95.39;95048.75;5053972;28;20207;-78
2023/09/17 03:33:22;;;;;;;0.20;0.20;;;;;;;17.41;94.88;95037.88;5053530;28;20243;-74
2023/09/17 03:35:49;;;;;;;0.20;0.20;;;;;;;17.40;94.55;95036.28;5053488;28;20228;-75
2023/09/17 03:38:16;;;;;;;0.20;0.20;;;;;;;17.42;94.01;95036.72;5053564;28;20203;-76
2023/09/17 03:40:43;;;;;;;0.73;0.70;;;;;;;17.46;93.67;95037.59;5053874;28;21550;-74
2023/09/17 03:43:11;;;;;;;0.40;0.40;;;;;;;17.50;93.44;95035.72;5053660;28;20631;-76
2023/09/17 03:45:38;;;;;;;1.65;0.52;;;;;;;17.50;93.35;95035.72;5053512;28;20222;-75
2023/09/17 03:48:06;;;;;;;0.35;0.35;;;;;;;17.55;93.19;95043.66;5052964;28;20218;-76
2023/09/17 03:50:33;;;;;;;0.55;0.55;;;;;;;17.52;93.47;95038.88;5053533;28;20211;-73
2023/09/17 03:53:05;;;;;;;0.85;0.85;;;;;;;17.50;93.79;95035.72;5053231;28;20298;-75
2023/09/17 03:55:33;;;;;;;0.50;0.50;;;;;;;17.52;93.88;95032.59;5051025;28;20203;-73
2023/09/17 03:58:00;;;;;;;0.20;0.20;;;;;;;17.48;94.25;95038.03;5059165;28;20224;-74
2023/09/17 04:00:29;;;;;;;0.30;0.30;;;;;;;17.50;94.30;95041.19;5053326;28;20261;-75
2023/09/17 04:02:56;;;;;;;0.10;0.10;;;;;;;17.48;94.49;95048.19;5057761;28;20261;-75
2023/09/17 04:05:24;;;;;;;0.47;0.47;;;;;;;17.49;94.88;95055.28;5053198;28;20680;-73
2023/09/17 04:07:50;;;;;;;0.47;0.40;;;;;;;17.49;94.77;95056.06;5053453;28;20311;-74
2023/09/17 04:10:19;;;;;;;0.17;0.17;;;;;;;17.52;94.78;95052.56;5053177;28;20686;-74
2023/09/17 04:12:46;;;;;;;0.20;0.20;;;;;;;17.47;94.89;95046.63;5052900;28;20293;-75
2023/09/17 04:15:16;;;;;;;0.45;0.45;;;;;;;17.48;95.17;95054.47;5052732;28;20208;-76
2023/09/17 04:17:45;;;;;;;0.30;0.30;;;;;;;17.50;95.27;95052.16;5053207;28;20987;-75
2023/09/17 04:20:13;;;;;;;1.35;1.00;;;;;;;17.49;95.54;95056.06;5053198;28;20259;-73
2023/09/17 04:22:40;;;;;;;0.77;0.77;;;;;;;17.56;95.46;95067.16;5053118;28;20313;-75
2023/09/17 04:25:09;;;;;;;0.20;0.20;;;;;;;17.54;95.57;95069.44;5053061;28;20215;-75
2023/09/17 04:27:36;;;;;;;0.30;0.30;;;;;;;17.57;95.55;95062.47;5052882;28;20282;-75
2023/09/17 04:30:05;;;;;;;1.25;0.90;;;;;;;17.57;95.67;95078.91;5052931;28;20575;-76
2023/09/17 04:32:37;;;;;;;0.13;0.13;;;;;;;17.57;95.94;95068.75;5053018;28;20207;-75
2023/09/17 04:35:07;;;;;;;0.10;0.10;;;;;;;17.57;96.19;95063.25;5052541;28;20203;-76
2023/09/17 04:37:34;;;;;;;0.20;0.20;;;;;;;17.56;96.25;95069.88;5049095;28;20223;-76
2023/09/17 04:40:01;;;;;;;0.38;0.38;;;;;;;17.58;96.16;95059.38;5052436;28;20207;-75
2023/09/17 04:42:30;;;;;;;0.20;0.20;;;;;;;17.64;96.18;95063.41;5049951;28;20281;-74
2023/09/17 04:44:56;;;;;;;0.30;0.30;;;;;;;17.61;97.44;95069.63;5052890;28;20298;-74
2023/09/17 04:47:24;;;;;;;1.00;0.50;;;;;;;17.63;97.53;95072.78;5051937;28;20202;-75
2023/09/17 04:49:52;;;;;;;0.47;0.47;;;;;;;17.72;97.53;95065.16;5052656;28;20206;-73
2023/09/17 04:52:21;;;;;;;0.20;0.20;;;;;;;17.69;98.70;95071.34;5052383;28;20204;-77
2023/09/17 04:54:47;;;;;;;2.83;1.05;;;;;;;17.72;98.97;95070.63;5052899;28;20599;-76
2023/09/17 04:57:14;;;;;;;0.82;0.82;;;;;;;17.80;98.62;95070.75;5057702;28;20277;-75
2023/09/17 04:59:41;;;;;;;1.67;0.85;;;;;;;17.77;98.92;95077.00;5052232;28;20207;-76
2023/09/17 05:02:08;;;;;;;0.20;0.20;;;;;;;17.80;98.74;95077.03;5056426;28;20214;-75
2023/09/17 05:04:35;;;;;;;0.30;0.30;;;;;;;17.83;98.88;95081.00;5052484;28;20735;-75
2023/09/17 05:07:03;;;;;;;0.20;0.20;;;;;;;17.87;98.87;95079.94;5051733;28;20203;-75
2023/09/17 05:09:32;;;;;;;0.95;0.82;;;;;;;17.94;99.11;95076.50;5051935;28;20896;-75
2023/09/17 05:11:59;;;;;;;0.47;0.47;;;;;;;18.03;98.62;95079.84;5051954;28;20226;-74
2023/09/17 05:14:26;;;;;;;0.50;0.50;;;;;;;18.05;98.88;95066.53;5051457;28;20254;-76
2023/09/17 05:16:53;;;;;;;0.38;0.38;;;;;;;18.02;99.19;95078.25;5051670;28;20223;-76
2023/09/17 05:19:19;;;;;;;0.52;0.52;;;;;;;18.09;98.74;95073.66;5052059;28;20572;-76
2023/09/17 05:21:46;;;;;;;0.50;0.50;;;;;;;18.22;98.30;95071.53;5052025;28;20291;-75
2023/09/17 05:24:13;;;;;;;0.43;0.43;;;;;;;18.18;98.05;95056.97;5051663;28;20566;-76
2023/09/17 05:26:41;;;;;;;0.75;0.40;;;;;;;18.27;98.68;95068.50;5052133;28;20249;-75
2023/09/17 05:29:10;;;;;;;0.40;0.40;;;;;;;18.24;98.70;95066.50;5049664;28;20208;-72
2023/09/17 05:31:37;;;;;;;0.20;0.20;;;;;;;18.37;98.27;95070.63;5047476;28;20286;-75
2023/09/17 05:34:04;;;;;;;0.52;0.52;;;;;;;18.58;97.41;95063.94;5048117;28;20265;-75
2023/09/17 05:36:31;;;;;;;0.20;0.20;;;;;;;18.73;96.09;95058.31;5047867;28;20277;-74
2023/09/17 05:38:58;;;;;;;0.20;0.20;;;;;;;18.96;94.54;95061.00;5044626;28;20299;-73
2023/09/17 05:41:24;;;;;;;0.55;0.55;;;;;;;19.19;93.14;95058.19;5047809;28;20294;-75
2023/09/17 05:43:53;;;;;;;0.22;0.22;;;;;;;19.44;91.45;95058.50;5051750;28;20211;-75
2023/09/17 05:46:19;;;;;;;0.32;0.32;;;;;;;19.97;88.46;95058.38;5048362;28;20207;-74
2023/09/17 05:48:46;;;;;;;0.63;0.63;;;;;;;20.49;85.16;95051.84;5043292;28;20208;-75
2023/09/17 05:51:13;;;;;;;2.42;0.73;;;;;;;20.96;82.37;95056.50;5048560;28;20207;-76
2023/09/17 05:53:40;;;;;;;0.30;0.30;;;;;;;21.98;78.53;95053.50;5045096;28;20203;-75
2023/09/17 05:56:07;;;;;;;0.85;0.85;;;;;;;22.22;76.62;95053.97;5046371;28;20266;-75
2023/09/17 05:58:34;;;;;;;0.30;0.30;;;;;;;23.11;73.74;95052.03;5047467;28;20318;-76
2023/09/17 06:01:04;;;;;;;0.63;0.63;;;;;;;23.90;70.05;95070.00;5048556;28;20204;-74
2023/09/17 06:03:31;;;;;;;2.22;2.03;;;;;;;23.63;70.54;95063.41;5047199;28;20196;-75
2023/09/17 06:05:58;;;;;;;2.90;2.10;;;;;;;23.19;71.78;95069.41;5045716;28;20615;-76
2023/09/17 06:08:28;;;;;;;3.47;2.03;;;;;;;22.07;76.87;95077.19;5047944;28;20302;-75
2023/09/17 06:10:55;;;;;;;4.28;2.70;;;;;;;21.55;79.27;95082.09;5043479;28;20409;-74
2023/09/17 06:13:22;;;;;;;0.55;0.55;;;;;;;20.73;83.54;95089.00;5044032;28;20712;-73
2023/09/17 06:15:49;;;;;;;0.32;0.32;;;;;;;20.29;85.97;95080.72;5040720;28;20231;-73
2023/09/17 06:18:18;;;;;;;0.35;0.35;;;;;;;19.69;88.78;95078.88;5046876;28;20228;-75
2023/09/17 06:20:45;;;;;;;2.70;1.75;;;;;;;19.67;90.36;95086.72;5042149;28;20227;-74
2023/09/17 06:23:12;;;;;;;0.82;0.80;;;;;;;19.62;90.51;95081.56;5042237;28;20273;-76
2023/09/17 06:25:39;;;;;;;0.95;0.95;;;;;;;19.54;91.89;95096.38;5041981;28;20192;-75
2023/09/17 06:28:07;;;;;;;0.20;0.20;;;;;;;19.59;91.71;95093.28;5045764;28;20227;-75
2023/09/17 06:30:34;;;;;;;0.50;0.50;;;;;;;19.69;91.70;95091.81;5044522;28;20204;-77
2023/09/17 06:33:03;;;;;;;0.63;0.63;;;;;;;19.86;91.55;95092.03;5044617;28;20227;-75
2023/09/17 06:35:32;;;;;;;0.30;0.30;;;;;;;19.82;90.39;95091.22;5042390;28;20205;-74
2023/09/17 06:37:58;;;;;;;2.53;0.52;;;;;;;19.97;90.23;95096.88;5042305;28;20227;-76
2023/09/17 06:40:25;;;;;;;1.10;1.10;;;;;;;19.81;90.25;95106.16;5043869;28;20243;-75
2023/09/17 06:42:52;;;;;;;0.10;0.10;;;;;;;19.81;91.28;95108.91;5047361;28;20269;-75
2023/09/17 06:45:19;;;;;;;1.27;0.75;;;;;;;19.91;90.94;95103.88;5044299;28;20259;-75
2023/09/17 06:47:46;;;;;;;0.73;0.73;;;;;;;19.88;90.62;95106.22;5040229;28;20234;-75
2023/09/17 06:50:13;;;;;;;0.50;0.50;;;;;;;20.00;90.26;95107.13;5040731;28;20672;-75
2023/09/17 06:52:41;;;;;;;0.68;0.60;;;;;;;20.32;88.85;95097.25;5043747;28;20222;-74
2023/09/17 06:55:09;;;;;;;0.40;0.40;;;;;;;20.49;87.48;95090.38;5044371;28;20268;-75
2023/09/17 06:57:36;;;;;;;0.25;0.25;;;;;;;20.33;87.88;95109.84;5046818;28;20293;-76
2023/09/17 07:00:04;;;;;;;0.50;0.40;;;;;;;20.24;88.44;95101.09;5041483;28;20216;-76
2023/09/17 07:02:31;;;;;;;3.58;2.22;;;;;;;20.30;88.17;95102.34;5048157;28;20541;-76
2023/09/17 07:05:00;;;;;;;1.98;1.50;;;;;;;20.41;87.49;95111.53;5041959;28;20204;-77
2023/09/17 07:07:28;;;;;;;0.57;0.57;;;;;;;20.49;87.36;95101.38;5041644;28;20196;-75
2023/09/17 07:09:56;;;;;;;4.25;2.10;;;;;;;20.20;88.38;95106.59;5039062;28;20655;-75
2023/09/17 07:12:23;;;;;;;4.78;2.78;;;;;;;20.42;87.70;95096.59;5049205;28;20247;-74
2023/09/17 07:14:50;;;;;;;0.77;0.77;;;;;;;20.54;87.01;95104.56;5050701;28;20211;-76
2023/09/17 07:17:16;;;;;;;0.28;0.28;;;;;;;20.73;85.67;95102.78;5056021;28;20277;-74
2023/09/17 07:19:43;;;;;;;0.25;0.25;;;;;;;20.68;85.59;95103.13;5049850;28;20214;-75
2023/09/17 07:22:14;;;;;;;0.52;0.52;;;;;;;20.98;84.36;95111.22;5049957;28;20200;-76
2023/09/17 07:24:41;;;;;;;3.17;2.08;;;;;;;21.06;83.91;95105.38;5047627;28;20283;-75
2023/09/17 07:27:09;;;;;;;0.28;0.28;;;;;;;21.42;82.19;95103.69;5049705;28;20202;-76
2023/09/17 07:29:37;;;;;;;0.20;0.20;;;;;;;21.56;81.60;95108.50;5055606;28;20618;-76
2023/09/17 07:32:05;;;;;;;0.32;0.32;;;;;;;21.72;80.69;95111.72;5043009;28;20214;-76
2023/09/17 07:34:32;;;;;;;0.52;0.52;;;;;;;21.58;81.12;95122.69;5049726;28;20207;-77
2023/09/17 07:36:59;;;;;;;1.10;1.10;;;;;;;21.57;81.06;95118.34;5048143;28;20638;-77
2023/09/17 07:39:26;;;;;;;0.85;0.82;;;;;;;21.48;81.12;95120.63;5039244;28;20207;-73
2023/09/17 07:41:53;;;;;;;1.02;0.52;;;;;;;21.63;80.68;95125.06;5039752;28;20204;-74
2023/09/17 07:44:21;;;;;;;0.30;0.30;;;;;;;21.81;78.82;95131.47;5044224;28;20615;-76
2023/09/17 07:46:50;;;;;;;0.47;0.47;;;;;;;21.94;78.79;95140.97;5044134;28;20200;-74
2023/09/17 07:49:17;;;;;;;1.25;1.25;;;;;;;22.03;79.07;95137.88;5043664;28;20204;-73
2023/09/17 07:51:44;;;;;;;3.78;2.60;;;;;;;22.54;77.42;95123.06;5041562;28;20208;-74
2023/09/17 07:54:11;;;;;;;2.47;2.03;;;;;;;22.31;77.44;95131.66;5042356;28;20257;-75
2023/09/17 07:56:38;;;;;;;3.08;2.13;;;;;;;22.21;77.77;95126.91;5039607;28;20652;-75
2023/09/17 07:59:05;;;;;;;0.63;0.63;;;;;;;22.35;76.51;95132.47;5038726;28;20236;-76
2023/09/17 08:01:33;;;;;;;0.77;0.77;;;;;;;22.50;76.54;95127.78;5044377;28;20200;-75
2023/09/17 08:04:00;;;;;;;0.20;0.20;;;;;;;21.87;78.07;95129.09;5046470;28;20207;-74
2023/09/17 08:06:27;;;;;;;0.68;0.68;;;;;;;21.90;78.47;95126.38;5049246;28;20615;-75
2023/09/17 08:08:57;;;;;;;2.92;0.95;;;;;;;21.96;77.86;95126.81;5041635;28;20203;-76
2023/09/17 08:11:29;;;;;;;0.28;0.28;;;;;;;21.93;78.49;95116.53;5040402;28;20209;-75
2023/09/17 08:13:57;;;;;;;4.93;2.53;;;;;;;22.16;77.50;95124.53;5046037;28;20728;-74
2023/09/17 08:16:25;;;;;;;3.95;2.22;;;;;;;23.02;74.26;95110.47;5049536;28;20214;-74
2023/09/17 08:18:54;;;;;;;2.97;1.75;;;;;;;23.19;72.81;95119.94;5043218;28;20215;-72
2023/09/17 08:21:21;;;;;;;0.60;0.52;;;;;;;23.22;72.28;95123.91;5042864;28;20296;-75
2023/09/17 08:23:49;;;;;;;1.60;1.02;;;;;;;23.56;71.14;95115.97;5042789;28;20215;-74
2023/09/17 08:26:17;;;;;;;0.85;0.70;;;;;;;23.54;70.37;95123.88;5042565;28;20207;-74
2023/09/17 08:28:45;;;;;;;0.52;0.52;;;;;;;22.69;72.65;95128.19;5038708;28;20216;-76
2023/09/17 08:31:13;;;;;;;0.77;0.77;;;;;;;22.81;73.07;95115.22;5042614;28;20715;-77
2023/09/17 08:33:40;;;;;;;0.20;0.20;;;;;;;22.93;72.36;95117.59;5041359;28;20583;-74
2023/09/17 08:36:09;;;;;;;0.40;0.40;;;;;;;23.15;71.88;95116.38;5047827;28;20672;-74
2023/09/17 08:38:41;;;;;;;3.45;2.58;;;;;;;23.69;69.52;95114.34;5044151;28;20235;-74
2023/09/17 08:41:08;;;;;;;4.38;2.35;;;;;;;23.47;70.13;95112.78;5040149;28;20204;-76
2023/09/17 08:43:36;;;;;;;2.67;2.25;;;;;;;23.20;70.81;95116.00;5038110;28;20209;-76
2023/09/17 08:46:04;;;;;;;3.33;2.08;;;;;;;23.27;70.33;95104.91;5041467;28;20327;-74
2023/09/17 08:48:36;;;;;;;4.03;2.60;;;;;;;24.11;68.38;95110.63;5042753;28;20770;-78
2023/09/17 08:51:05;;;;;;;3.95;2.67;;;;;;;23.75;68.19;95101.69;5041507;28;20257;-77
2023/09/17 08:53:41;;;;;;;3.42;2.53;;;;;;;23.16;70.75;95114.41;5043592;28;20211;-77
2023/09/17 08:56:09;;;;;;;4.20;2.22;;;;;;;23.10;70.52;95116.78;5040783;28;20200;-77
2023/09/17 08:58:39;;;;;;;4.63;2.88;;;;;;;22.90;71.24;95107.31;5044383;28;20219;-79
2023/09/17 09:01:12;;;;;;;5.32;3.50;;;;;;;22.97;70.57;95112.84;5042416;28;20211;-78
2023/09/17 09:03:41;;;;;;;3.53;2.47;;;;;;;22.76;71.77;95107.28;5044205;28;20257;-76
2023/09/17 09:06:14;;;;;;;0.47;0.32;;;;;;;23.49;69.55;95104.91;5048289;28;20207;-75
2023/09/17 09:08:46;;;;;;;0.52;0.52;;;;;;;23.74;68.05;95106.44;5045675;28;20208;-76
2023/09/17 09:11:14;;;;;;;0.52;0.50;;;;;;;23.99;68.11;95089.72;5047381;28;20212;-76
2023/09/17 09:13:42;;;;;;;3.05;2.10;;;;;;;23.87;66.63;95103.22;5039036;28;20722;-76
2023/09/17 09:16:09;;;;;;;3.05;2.28;;;;;;;23.95;67.37;95088.94;5045582;28;20662;-75
2023/09/17 09:18:36;;;;;;;4.88;2.85;;;;;;;23.39;68.68;95101.72;5051096;28;20714;-74
2023/09/17 09:21:04;;;;;;;2.50;2.22;;;;;;;23.63;68.86;95093.81;5047270;28;20261;-75
2023/09/17 09:23:32;;;;;;;2.50;1.92;;;;;;;23.78;68.28;95100.88;5044570;28;20294;-76
2023/09/17 09:26:00;;;;;;;4.03;2.63;;;;;;;23.92;67.13;95094.47;5039170;28;20208;-74
2023/09/17 09:28:31;;;;;;;5.13;2.55;;;;;;;24.26;66.36;95080.91;5042410;28;20296;-75
2023/09/17 09:30:58;;;;;;;4.03;2.30;;;;;;;23.23;68.48;95092.31;5044262;28;20235;-75
2023/09/17 09:33:28;;;;;;;2.05;1.70;;;;;;;23.13;69.51;95091.13;5046500;28;20215;-77
2023/09/17 09:35:56;;;;;;;4.78;2.67;;;;;;;23.20;69.86;95088.34;5045141;28;20208;-76
2023/09/17 09:38:23;;;;;;;0.45;0.45;;;;;;;23.28;68.68;95087.16;5046791;28;20627;-76
2023/09/17 09:40:50;;;;;;;0.65;0.60;;;;;;;22.96;69.74;95092.69;5045670;28;20211;-76
2023/09/17 09:43:29;;;;;;;3.53;1.95;;;;;;;23.00;70.02;95101.00;5048854;28;20211;-75
2023/09/17 09:45:56;;;;;;;3.15;2.13;;;;;;;22.50;71.75;95100.94;5048015;28;20195;-76
2023/09/17 09:48:22;;;;;;;5.97;2.70;;;;;;;22.35;72.35;95093.81;5049695;28;20203;-75
2023/09/17 09:50:53;;;;;;;2.20;2.00;;;;;;;22.58;71.74;95108.06;5050724;28;20208;-80
2023/09/17 09:53:20;;;;;;;3.38;2.17;;;;;;;22.48;72.23;95106.06;5050730;28;20571;-76
2023/09/17 09:55:49;;;;;;;2.50;2.25;;;;;;;22.78;71.92;95099.44;5050652;28;20298;-80
2023/09/17 09:58:17;;;;;;;2.47;1.75;;;;;;;22.72;71.03;95092.69;5048668;28;20231;-75
2023/09/17 10:00:48;;;;;;;3.50;2.17;;;;;;;22.81;70.76;95098.66;5049738;28;20261;-76
2023/09/17 10:03:19;;;;;;;2.55;1.90;;;;;;;22.47;72.20;95104.50;5056151;28;20701;-77
2023/09/17 10:05:47;;;;;;;4.20;2.53;;;;;;;22.54;71.94;95096.22;5050408;28;20207;-76
2023/09/17 10:08:17;;;;;;;1.95;1.77;;;;;;;22.50;72.01;95100.94;5049655;28;20294;-76
2023/09/17 10:10:44;;;;;;;4.72;2.13;;;;;;;22.50;71.90;95100.94;5045466;28;20681;-77
2023/09/17 10:13:11;;;;;;;0.38;0.38;;;;;;;22.60;71.35;95100.16;5050325;28;20247;-78
2023/09/17 10:15:42;;;;;;;3.70;3.08;;;;;;;22.72;71.08;95089.91;5049012;28;20204;-75
2023/09/17 10:18:14;;;;;;;2.10;1.55;;;;;;;22.90;70.57;95087.97;5051581;28;20322;-77
2023/09/17 10:20:42;;;;;;;3.65;2.05;;;;;;;23.38;70.05;95088.31;5049666;28;20211;-75
2023/09/17 10:23:11;;;;;;;4.55;2.35;;;;;;;23.24;68.80;95080.81;5049312;28;20215;-77
2023/09/17 10:25:42;;;;;;;4.35;2.20;;;;;;;23.28;69.19;95084.38;5049955;28;20218;-75
2023/09/17 10:28:11;;;;;;;3.60;2.20;;;;;;;23.30;68.17;95086.75;5049735;28;20203;-75
2023/09/17 10:30:39;;;;;;;3.17;2.10;;;;;;;23.46;67.79;95089.09;5051935;28;20207;-75
2023/09/17 10:33:07;;;;;;;2.70;2.05;;;;;;;23.80;67.77;95081.88;5048146;28;20311;-74
2023/09/17 10:35:36;;;;;;;3.53;2.33;;;;;;;23.81;67.03;95096.50;5044771;28;20578;-75
2023/09/17 10:38:05;;;;;;;4.05;1.95;;;;;;;23.64;67.23;95089.88;5043066;28;20207;-75
2023/09/17 10:40:34;;;;;;;3.30;2.22;;;;;;;23.13;68.39;95093.88;5044884;28;20265;-74
2023/09/17 10:43:04;;;;;;;3.67;2.53;;;;;;;23.04;69.03;95087.97;5048638;28;20203;-76
2023/09/17 10:45:35;;;;;;;2.05;1.80;;;;;;;23.33;68.01;95086.75;5049728;28;20211;-77
2023/09/17 10:48:03;;;;;;;3.80;2.40;;;;;;;23.38;68.76;95091.84;5040352;28;20200;-76
2023/09/17 10:50:34;;;;;;;3.10;1.92;;;;;;;23.33;68.67;95080.44;5042111;28;20273;-74
2023/09/17 10:53:02;;;;;;;4.68;2.70;;;;;;;23.69;67.97;95081.13;5040484;28;20227;-75
2023/09/17 10:55:34;;;;;;;1.55;1.08;;;;;;;23.79;67.51;95085.84;5050173;28;20204;-74
2023/09/17 10:58:07;;;;;;;1.73;0.82;;;;;;;23.84;66.86;95088.19;5044715;28;20279;-78
2023/09/17 11:00:35;;;;;;;4.88;2.30;;;;;;;23.52;67.99;95081.97;5040137;28;20199;-76
2023/09/17 11:03:06;;;;;;;2.55;1.80;;;;;;;23.46;67.86;95072.50;5041043;28;20249;-77
2023/09/17 11:05:35;;;;;;;3.65;2.65;;;;;;;23.46;68.50;95066.97;5042629;28;20203;-76
2023/09/17 11:08:06;;;;;;;3.53;1.98;;;;;;;23.87;67.14;95054.19;5042452;28;20266;-78
2023/09/17 11:10:33;;;;;;;5.65;3.45;;;;;;;24.27;65.17;95038.97;5044216;28;20672;-75
2023/09/17 11:13:00;;;;;;;5.70;2.30;;;;;;;24.71;64.35;95052.13;5040048;28;20243;-76
2023/09/17 11:15:27;;;;;;;0.90;0.90;;;;;;;24.93;63.17;95035.28;5042812;28;20204;-76
2023/09/17 11:18:01;;;;;;;1.65;1.55;;;;;;;25.20;62.46;95054.88;5041299;28;20257;-74
2023/09/17 11:20:28;;;;;;;3.50;2.38;;;;;;;24.89;62.92;95043.63;5042887;28;20565;-75
2023/09/17 11:22:56;;;;;;;3.30;2.25;;;;;;;24.60;64.26;95045.09;5041243;28;20207;-74
2023/09/17 11:25:36;;;;;;;3.90;2.00;;;;;;;24.51;64.12;95036.44;5039027;28;20539;-76
2023/09/17 11:28:15;;;;;;;3.47;2.50;;;;;;;24.48;65.25;95038.03;5042608;28;20212;-76
2023/09/17 11:30:57;;;;;;;3.33;2.30;;;;;;;24.57;64.32;95030.06;5038339;28;20310;-76
2023/09/17 11:33:25;;;;;;;3.47;2.55;;;;;;;25.08;62.78;95032.00;5041901;28;20207;-77
2023/09/17 11:35:53;;;;;;;4.25;2.47;;;;;;;25.12;63.40;95024.47;5044544;28;20292;-77
2023/09/17 11:38:24;;;;;;;4.40;2.45;;;;;;;25.81;60.82;95019.75;5042105;28;20663;-77